Time;durP1;ratioP1;P1;durP2;ratioP2;P2;SDS_P1;SDS_P2;PMS_P1;PMS_P2;Temp;Humidity;BMP_temperature;BMP_pressure;BME280_temperature;BME280_humidity;BME280_pressure;Samples;Min_cycle;Max_cycle;Signal;HPM_P1;HPM_P2
2022/01/28 00:02:30;;;;;;;20.52;4.93;;;;;;;5.09;82.89;100880.31;4965426;28;20551;-70
2022/01/28 00:04:55;;;;;;;19.52;5.53;;;;;;;5.06;82.85;100885.56;4976061;28;20522;-69
2022/01/28 00:07:20;;;;;;;10.88;5.00;;;;;;;5.03;83.52;100889.06;4966636;28;20031;-69
2022/01/28 00:09:46;;;;;;;18.20;5.85;;;;;;;5.00;83.06;100889.13;4946381;28;20039;-70
2022/01/28 00:12:12;;;;;;;17.13;4.75;;;;;;;4.98;83.69;100896.09;4981589;28;20030;-71
2022/01/28 00:14:53;;;;;;;11.75;4.75;;;;;;;5.02;83.39;100894.31;4979702;28;20043;-69
2022/01/28 00:38:44;;;;;;;13.23;5.68;;;;;;;4.97;82.82;100944.00;4970317;28;20099;-71
2022/01/28 00:41:09;;;;;;;29.08;6.85;;;;;;;4.94;83.32;100950.09;4952484;28;20043;-72
2022/01/28 00:43:35;;;;;;;17.33;6.03;;;;;;;4.91;83.79;100957.97;4952650;28;20035;-71
2022/01/28 00:46:00;;;;;;;14.95;6.18;;;;;;;4.86;83.41;100967.59;4968898;28;20039;-72
2022/01/28 00:48:25;;;;;;;27.02;6.13;;;;;;;4.85;83.66;100975.44;4969423;28;20031;-71
2022/01/28 00:50:51;;;;;;;22.15;5.97;;;;;;;4.83;83.83;100982.44;4967655;28;20492;-73
2022/01/28 00:53:16;;;;;;;18.45;6.53;;;;;;;4.82;83.89;100978.06;4950551;28;20039;-72
2022/01/28 00:55:42;;;;;;;16.48;5.85;;;;;;;4.80;83.92;100993.78;4949916;28;20043;-74
2022/01/28 00:58:07;;;;;;;18.48;6.38;;;;;;;4.76;83.83;100985.97;4952646;28;20039;-74
2022/01/28 01:00:33;;;;;;;12.68;6.03;;;;;;;4.73;84.30;100997.31;4951713;28;20174;-72
2022/01/28 01:02:58;;;;;;;14.18;5.50;;;;;;;4.70;83.99;101006.03;4951546;28;20035;-72
2022/01/28 01:05:24;;;;;;;15.02;6.07;;;;;;;4.70;84.06;100990.34;4951005;28;20039;-73
2022/01/28 01:07:50;;;;;;;16.35;5.20;;;;;;;4.70;83.35;100994.69;4951765;28;20035;-73
2022/01/28 01:10:17;;;;;;;21.60;5.65;;;;;;;4.70;83.62;100992.97;4966687;28;20042;-73
2022/01/28 01:12:46;;;;;;;21.13;5.68;;;;;;;4.68;83.35;100991.25;4953640;28;20074;-72
2022/01/28 01:15:16;;;;;;;15.98;5.60;;;;;;;4.66;83.18;100988.63;4969076;28;20495;-72
2022/01/28 01:23:11;;;;;;;15.27;5.55;;;;;;;4.58;83.47;101019.16;4969793;28;20038;-72
2022/01/28 01:25:45;;;;;;;12.10;6.97;;;;;;;4.56;83.64;101031.34;4969242;28;20042;-72
2022/01/28 01:28:12;;;;;;;17.58;6.47;;;;;;;4.52;84.08;101035.69;4969460;28;20042;-70
2022/01/28 01:30:41;;;;;;;28.30;6.88;;;;;;;4.51;83.63;101033.09;4952923;28;20039;-73
2022/01/28 01:33:08;;;;;;;18.25;5.97;;;;;;;4.52;83.86;101034.81;4969946;28;20034;-73
2022/01/28 01:35:33;;;;;;;19.70;6.07;;;;;;;4.49;83.86;101032.25;4969023;28;20395;-72
2022/01/28 01:37:59;;;;;;;19.08;6.47;;;;;;;4.47;84.00;101044.44;4968988;28;20034;-71
2022/01/28 01:40:31;;;;;;;14.85;6.50;;;;;;;4.44;84.19;101040.09;4950009;29;20063;-73
2022/01/28 01:43:50;;;;;;;23.60;6.53;;;;;;;4.44;83.94;101040.09;4941452;29;20031;-73
2022/01/28 01:53:44;;;;;;;16.52;5.93;;;;;;;4.38;84.07;101057.50;4955730;28;20086;-74
2022/01/28 01:56:09;;;;;;;17.13;5.75;;;;;;;4.38;83.59;101061.00;4943124;29;20043;-73
2022/01/28 01:58:36;;;;;;;16.45;5.13;;;;;;;4.36;84.09;101062.75;4955683;29;20042;-72
2022/01/28 02:01:02;;;;;;;18.85;6.65;;;;;;;4.36;83.91;101061.88;4909098;28;20050;-72
2022/01/28 02:03:29;;;;;;;24.67;6.07;;;;;;;4.35;83.88;101076.66;4954232;28;20633;-72
2022/01/28 02:05:57;;;;;;;14.57;5.13;;;;;;;4.34;84.12;101068.84;4953409;28;20039;-72
2022/01/28 02:08:24;;;;;;;20.23;6.80;;;;;;;4.33;83.92;101064.47;4953789;29;20380;-73
2022/01/28 02:10:50;;;;;;;24.20;6.60;;;;;;;4.30;84.22;101068.84;4920909;28;20119;-72
2022/01/28 02:13:15;;;;;;;18.00;5.70;;;;;;;4.31;84.06;101072.34;4953369;29;20121;-73
2022/01/28 02:15:41;;;;;;;16.70;5.60;;;;;;;4.28;84.45;101083.66;4952571;28;20098;-72
2022/01/28 02:18:06;;;;;;;18.38;6.03;;;;;;;4.29;84.43;101085.38;4965045;28;20094;-73
2022/01/28 02:20:36;;;;;;;17.00;4.78;;;;;;;4.29;84.41;101076.69;4972867;28;20034;-73
2022/01/28 02:23:01;;;;;;;19.52;6.07;;;;;;;4.29;84.25;101076.69;4972845;28;20027;-72
2022/01/28 02:25:30;;;;;;;16.33;6.43;;;;;;;4.29;84.63;101076.69;4971903;28;20030;-72
2022/01/28 02:27:58;;;;;;;19.95;8.63;;;;;;;4.27;84.48;101081.91;4972475;28;20593;-73
2022/01/28 02:30:23;;;;;;;12.35;5.57;;;;;;;4.24;83.75;101084.53;4972414;28;20050;-73
2022/01/28 02:32:50;;;;;;;21.83;6.45;;;;;;;4.24;83.58;101088.88;4972408;28;20038;-72
2022/01/28 02:35:16;;;;;;;19.02;5.85;;;;;;;4.24;83.79;101094.09;4971674;28;20507;-72
2022/01/28 02:37:41;;;;;;;19.45;4.70;;;;;;;4.23;83.08;101084.53;4972281;28;20039;-72
2022/01/28 02:40:08;;;;;;;12.80;5.43;;;;;;;4.24;83.06;101096.72;4955064;28;20045;-72
2022/01/28 02:43:00;;;;;;;15.48;6.22;;;;;;;4.24;83.32;101094.09;4974895;28;20038;-72
2022/01/28 02:45:30;;;;;;;11.40;5.03;;;;;;;4.23;83.35;101087.13;4990335;28;20121;-72
2022/01/28 02:48:00;;;;;;;18.13;6.32;;;;;;;4.20;83.65;101082.78;4992129;28;20045;-72
2022/01/28 02:50:29;;;;;;;18.40;5.38;;;;;;;4.19;83.05;101082.81;4991749;28;20103;-72
2022/01/28 02:53:04;;;;;;;12.98;5.50;;;;;;;4.17;82.95;101080.19;4991132;28;20034;-72
2022/01/28 02:55:34;;;;;;;19.85;6.13;;;;;;;4.14;83.05;101080.22;4990516;28;20454;-72
2022/01/28 02:58:15;;;;;;;7.55;4.05;;;;;;;4.15;82.99;101087.16;4991777;28;20042;-72
2022/01/28 03:00:41;;;;;;;18.80;6.82;;;;;;;4.13;83.29;101077.59;4991411;28;20047;-72
2022/01/28 03:03:07;;;;;;;12.23;5.35;;;;;;;4.15;82.55;101086.28;4991540;28;20049;-72
2022/01/28 03:05:34;;;;;;;24.95;5.38;;;;;;;4.13;82.58;101095.84;4991005;28;20666;-72
2022/01/28 03:08:03;;;;;;;16.15;4.75;;;;;;;4.15;82.08;101094.97;4991746;28;20038;-73
2022/01/28 03:10:40;;;;;;;18.17;4.97;;;;;;;4.16;81.76;101094.13;4973755;28;20407;-71
2022/01/28 03:15:34;;;;;;;11.15;4.25;;;;;;;4.17;81.91;101097.59;4991725;28;20034;-72
2022/01/28 03:18:17;;;;;;;19.13;4.93;;;;;;;4.17;82.00;101102.81;4991302;28;20061;-72
2022/01/28 03:20:59;;;;;;;12.18;4.28;;;;;;;4.16;82.18;101095.84;4990905;28;20129;-72
2022/01/28 03:23:24;;;;;;;15.35;5.28;;;;;;;4.15;81.54;101107.16;4991291;28;20487;-73
2022/01/28 03:25:50;;;;;;;19.92;7.80;;;;;;;4.13;81.65;101117.59;4989942;28;20049;-72
2022/01/28 03:28:18;;;;;;;19.80;5.60;;;;;;;4.11;81.62;101116.75;4990667;28;20038;-71
2022/01/28 03:30:44;;;;;;;13.30;4.40;;;;;;;4.14;81.08;101126.31;4990652;28;20535;-72
2022/01/28 03:33:09;;;;;;;15.30;5.05;;;;;;;4.14;81.50;101121.09;4990303;28;20034;-73
2022/01/28 03:35:35;;;;;;;14.60;4.10;;;;;;;4.14;81.26;101128.94;4974940;28;20134;-72
2022/01/28 03:38:03;;;;;;;11.07;4.65;;;;;;;4.15;81.26;101125.44;4971276;28;20043;-73
2022/01/28 03:40:36;;;;;;;14.57;5.00;;;;;;;4.15;81.38;101130.66;4970976;28;20042;-73
2022/01/28 03:43:02;;;;;;;18.27;5.25;;;;;;;4.15;81.28;101123.69;4954714;28;20497;-73
2022/01/28 03:45:28;;;;;;;11.15;4.38;;;;;;;4.15;81.09;101126.31;4970593;28;20125;-72
2022/01/28 03:47:53;;;;;;;15.75;5.13;;;;;;;4.15;81.73;101136.75;4953553;28;20137;-72
2022/01/28 03:50:18;;;;;;;17.25;5.50;;;;;;;4.12;81.22;101138.50;4970611;28;20035;-72
2022/01/28 03:52:44;;;;;;;15.15;4.80;;;;;;;4.08;81.54;101145.44;4953644;28;20070;-72
2022/01/28 03:55:10;;;;;;;15.55;5.40;;;;;;;4.08;81.64;101145.44;4970473;28;20078;-72
2022/01/28 03:57:35;;;;;;;15.82;4.82;;;;;;;4.07;81.19;101144.59;4971231;28;20034;-72
2022/01/28 04:00:01;;;;;;;16.73;4.20;;;;;;;4.08;81.20;101148.06;4971447;28;20107;-72
2022/01/28 04:02:30;;;;;;;15.95;4.53;;;;;;;4.07;81.25;101144.59;4970791;28;20125;-71
2022/01/28 04:12:50;;;;;;;13.25;5.50;;;;;;;4.11;81.60;101152.41;4970719;28;20046;-71
2022/01/28 04:17:50;;;;;;;13.45;5.53;;;;;;;4.13;81.55;101153.28;4969953;28;20495;-71
2022/01/28 04:20:16;;;;;;;14.75;4.38;;;;;;;4.12;81.86;101148.94;4970082;28;20470;-70
2022/01/28 04:22:41;;;;;;;12.00;3.92;;;;;;;4.09;81.87;101145.47;4970172;28;20070;-71
2022/01/28 04:25:07;;;;;;;12.00;4.78;;;;;;;4.09;82.10;101145.47;4969306;28;20053;-72
2022/01/28 04:27:33;;;;;;;12.80;4.40;;;;;;;4.08;82.25;101146.31;4971125;28;20052;-71
2022/01/28 04:29:58;;;;;;;17.70;4.65;;;;;;;4.09;82.02;101141.97;4969144;28;20042;-70
2022/01/28 04:32:26;;;;;;;10.75;3.83;;;;;;;4.08;81.72;101148.91;4961682;28;20046;-71
2022/01/28 04:34:53;;;;;;;25.67;5.22;;;;;;;4.07;82.27;101149.81;4956481;28;20071;-71
2022/01/28 04:37:41;;;;;;;18.10;4.50;;;;;;;4.07;82.67;101160.25;4951072;28;20090;-72
2022/01/28 04:40:25;;;;;;;18.35;5.47;;;;;;;4.08;82.55;101161.09;4950443;28;20448;-71
2022/01/28 04:45:44;;;;;;;22.50;6.90;;;;;;;4.09;82.62;101174.16;4949989;28;20039;-71
2022/01/28 04:48:21;;;;;;;14.52;4.85;;;;;;;4.08;82.64;101175.00;4961190;28;20031;-71
2022/01/28 04:53:45;;;;;;;25.48;8.55;;;;;;;4.10;82.90;101169.81;4963070;28;20510;-71
2022/01/28 04:56:31;;;;;;;14.70;7.05;;;;;;;4.14;83.46;101170.69;4961644;28;20118;-71
2022/01/28 05:28:53;;;;;;;17.75;6.43;;;;;;;4.60;82.15;101194.97;4892447;29;20475;-72
2022/01/28 05:31:19;;;;;;;11.02;4.30;;;;;;;4.58;81.91;101188.91;4921651;28;20023;-72
2022/01/28 05:33:45;;;;;;;16.65;5.05;;;;;;;4.60;81.98;101191.50;4970073;28;20043;-71
2022/01/28 05:36:11;;;;;;;13.90;4.90;;;;;;;4.59;81.53;101185.41;4971877;28;20037;-71
2022/01/28 05:38:36;;;;;;;10.48;4.70;;;;;;;4.59;81.64;101195.84;4974399;28;20035;-70
2022/01/28 05:41:02;;;;;;;12.18;4.45;;;;;;;4.58;82.12;101201.97;4973213;28;20035;-71
2022/01/28 05:43:27;;;;;;;27.17;7.25;;;;;;;4.54;81.68;101215.03;4973472;28;20046;-72
2022/01/28 05:45:52;;;;;;;21.55;4.90;;;;;;;4.48;81.92;101216.78;4972710;28;20031;-71
2022/01/28 05:48:20;;;;;;;16.08;4.60;;;;;;;4.46;81.99;101221.13;4972944;28;20031;-71
2022/01/28 05:50:46;;;;;;;13.23;4.95;;;;;;;4.42;81.94;101221.13;4973269;28;20058;-71
2022/01/28 05:53:11;;;;;;;21.55;5.30;;;;;;;4.36;82.00;101211.56;4972959;28;20078;-72
2022/01/28 05:55:37;;;;;;;20.02;5.47;;;;;;;4.32;82.46;101219.41;4954995;28;20033;-72
2022/01/28 05:58:02;;;;;;;12.18;4.22;;;;;;;4.29;82.79;101222.88;4972818;28;20520;-72
2022/01/28 06:00:28;;;;;;;14.68;4.30;;;;;;;4.27;83.20;101227.22;4973396;28;20034;-72
2022/01/28 06:02:53;;;;;;;15.40;5.22;;;;;;;4.23;82.47;101243.75;4973232;28;20042;-71
2022/01/28 06:05:18;;;;;;;24.30;6.68;;;;;;;4.20;83.07;101243.75;4972595;28;20038;-71
2022/01/28 06:07:44;;;;;;;17.33;5.20;;;;;;;4.18;83.24;101245.47;4972857;28;20486;-71
2022/01/28 06:10:10;;;;;;;14.57;4.95;;;;;;;4.14;83.20;101242.03;4973379;28;20392;-73
2022/01/28 06:12:41;;;;;;;12.50;4.63;;;;;;;4.09;83.01;101246.38;4972237;28;20039;-72
2022/01/28 06:15:07;;;;;;;16.42;6.32;;;;;;;4.07;83.34;101256.78;4972288;28;20432;-72
2022/01/28 06:17:32;;;;;;;19.50;6.10;;;;;;;4.04;83.23;101256.78;4973588;28;20053;-72
2022/01/28 06:19:57;;;;;;;18.20;6.63;;;;;;;4.03;83.36;101262.88;4975978;28;20442;-72
2022/01/28 06:22:23;;;;;;;13.73;5.35;;;;;;;3.99;83.82;101261.16;4953061;28;20050;-72
2022/01/28 06:24:48;;;;;;;22.20;6.57;;;;;;;4.02;83.80;101266.34;4952340;28;20050;-72
2022/01/28 06:27:13;;;;;;;14.93;6.72;;;;;;;4.06;83.37;101267.22;4953528;28;20090;-71
2022/01/28 06:29:39;;;;;;;18.00;6.50;;;;;;;4.09;83.95;101280.28;4952904;28;20043;-71
2022/01/28 06:32:05;;;;;;;16.10;6.93;;;;;;;4.15;83.53;101287.25;4952982;28;20044;-72
2022/01/28 06:34:30;;;;;;;23.38;9.00;;;;;;;4.18;83.32;101280.28;4951824;28;20042;-72
2022/01/28 06:36:57;;;;;;;16.25;7.03;;;;;;;4.24;83.54;101276.84;4952916;28;20409;-71
2022/01/28 06:39:22;;;;;;;20.50;6.85;;;;;;;4.26;83.54;101277.72;4952217;28;20042;-71
2022/01/28 06:41:47;;;;;;;18.17;8.20;;;;;;;4.29;83.47;101282.91;4935116;28;20047;-72
2022/01/28 06:44:13;;;;;;;23.98;9.75;;;;;;;4.29;83.14;101281.19;4952815;28;20039;-71
2022/01/28 06:46:38;;;;;;;18.85;9.18;;;;;;;4.31;83.27;101278.56;4951768;28;20043;-70
2022/01/28 06:49:04;;;;;;;13.93;8.68;;;;;;;4.32;82.85;101289.88;4953174;28;20176;-70
2022/01/28 06:51:29;;;;;;;18.33;8.85;;;;;;;4.34;83.33;101301.19;4952694;28;20115;-70
2022/01/28 06:53:54;;;;;;;21.17;8.95;;;;;;;4.35;83.12;101302.94;4934394;28;20428;-71
2022/01/28 06:56:20;;;;;;;21.30;10.63;;;;;;;4.38;83.34;101308.16;4973160;28;20519;-69
2022/01/28 06:58:45;;;;;;;20.80;9.52;;;;;;;4.39;82.73;101316.00;4971411;28;20039;-71
2022/01/28 07:01:10;;;;;;;22.73;10.27;;;;;;;4.41;83.31;101318.63;4972306;28;20115;-70
2022/01/28 07:03:36;;;;;;;22.63;13.45;;;;;;;4.45;82.53;101317.72;4954382;28;20397;-71
2022/01/28 07:06:01;;;;;;;23.55;11.05;;;;;;;4.46;83.05;101315.13;4970887;28;20408;-70
2022/01/28 07:08:28;;;;;;;20.70;8.77;;;;;;;4.42;82.80;101318.59;4972118;28;20564;-71
2022/01/28 07:10:53;;;;;;;27.00;9.88;;;;;;;4.42;82.85;101316.00;4972060;28;20035;-71
2022/01/28 07:13:19;;;;;;;21.60;9.88;;;;;;;4.42;83.25;101320.34;4970367;28;20061;-70
2022/01/28 07:15:45;;;;;;;22.60;11.05;;;;;;;4.42;83.28;101328.19;4971640;28;20043;-70
2022/01/28 07:18:10;;;;;;;22.25;11.13;;;;;;;4.44;83.15;101326.44;4971999;28;20066;-71
2022/01/28 07:20:35;;;;;;;25.98;9.73;;;;;;;4.42;83.31;101325.56;4974635;28;20067;-72
2022/01/28 07:23:02;;;;;;;23.52;10.75;;;;;;;4.44;83.34;101326.44;4973901;28;20109;-72
2022/01/28 07:25:27;;;;;;;25.17;9.40;;;;;;;4.46;83.34;101343.84;4972130;28;20130;-72
2022/01/28 07:27:52;;;;;;;25.50;10.40;;;;;;;4.46;83.04;101345.59;4970058;28;20045;-72
2022/01/28 07:30:18;;;;;;;18.58;9.88;;;;;;;4.45;82.93;101344.69;4971513;28;20568;-71
2022/01/28 07:32:44;;;;;;;18.77;10.77;;;;;;;4.45;82.90;101346.44;4971958;28;20146;-70
2022/01/28 07:35:09;;;;;;;25.77;9.80;;;;;;;4.43;82.84;101353.41;4970567;28;20073;-70
2022/01/28 07:37:35;;;;;;;18.13;9.80;;;;;;;4.43;82.82;101349.09;4971178;28;20061;-71
2022/01/28 07:40:03;;;;;;;19.38;8.90;;;;;;;4.45;82.97;101356.91;4971229;28;20477;-71
2022/01/28 07:42:32;;;;;;;31.25;15.10;;;;;;;4.45;82.67;101357.75;4970785;28;20501;-71
2022/01/28 07:44:57;;;;;;;20.25;10.25;;;;;;;4.40;82.73;101367.34;4970324;28;20042;-71
2022/01/28 07:47:23;;;;;;;18.35;10.60;;;;;;;4.35;82.75;101358.63;4970504;28;20045;-72
2022/01/28 07:49:48;;;;;;;19.05;10.38;;;;;;;4.32;82.75;101355.16;4971370;28;20046;-72
2022/01/28 07:52:14;;;;;;;31.45;12.25;;;;;;;4.32;82.70;101362.97;4971475;28;20039;-72
2022/01/28 07:54:46;;;;;;;23.30;11.90;;;;;;;4.30;83.00;101349.91;4969744;28;20408;-71
2022/01/28 07:57:11;;;;;;;25.75;11.98;;;;;;;4.33;83.51;101356.88;4970881;28;20065;-72
2022/01/28 07:59:37;;;;;;;28.83;13.98;;;;;;;4.29;83.02;101358.63;4970760;28;20035;-72
2022/01/28 08:02:02;;;;;;;35.70;15.27;;;;;;;4.26;83.08;101361.25;4953131;28;20041;-71
2022/01/28 08:04:27;;;;;;;19.73;12.02;;;;;;;4.23;82.79;101359.50;4969601;28;20185;-72
2022/01/28 08:06:53;;;;;;;24.42;11.35;;;;;;;4.25;83.43;101373.41;4970372;28;20122;-71
2022/01/28 08:09:18;;;;;;;22.08;11.43;;;;;;;4.31;83.03;101375.16;4970638;28;20038;-71
2022/01/28 08:11:45;;;;;;;22.10;12.93;;;;;;;4.38;82.52;101381.25;4971074;28;20042;-71
2022/01/28 08:14:13;;;;;;;29.10;13.70;;;;;;;4.38;82.89;101378.63;4968932;28;20070;-71
2022/01/28 08:16:39;;;;;;;33.13;14.00;;;;;;;4.41;82.42;101389.97;4970008;28;20035;-72
2022/01/28 08:19:04;;;;;;;23.63;12.35;;;;;;;4.42;82.54;101390.84;4977328;28;20113;-71
2022/01/28 08:21:29;;;;;;;24.52;12.32;;;;;;;4.43;82.78;101384.75;4980639;28;20487;-71
2022/01/28 08:23:55;;;;;;;21.25;11.85;;;;;;;4.45;82.54;101389.09;4989327;28;20613;-73
2022/01/28 08:26:21;;;;;;;30.77;13.02;;;;;;;4.38;82.07;101387.38;4972109;28;20177;-72
2022/01/28 08:28:47;;;;;;;39.38;12.50;;;;;;;4.35;82.37;101394.31;4974585;28;20412;-74
2022/01/28 08:31:13;;;;;;;18.77;12.65;;;;;;;4.33;82.79;101390.81;4970921;28;20042;-69
2022/01/28 08:33:39;;;;;;;25.17;13.18;;;;;;;4.31;82.35;101398.66;4970467;28;20049;-70
2022/01/28 08:36:05;;;;;;;21.08;11.60;;;;;;;4.30;82.65;101397.78;4969749;28;20067;-70
2022/01/28 08:38:36;;;;;;;28.17;10.82;;;;;;;4.31;82.28;101403.88;4971267;28;20050;-70
2022/01/28 08:41:02;;;;;;;28.90;13.40;;;;;;;4.30;82.20;101409.97;4970353;28;20093;-70
2022/01/28 08:43:28;;;;;;;27.10;12.65;;;;;;;4.29;82.60;101409.09;4967311;28;20680;-70
2022/01/28 08:45:54;;;;;;;19.95;11.50;;;;;;;4.34;82.32;101423.91;4958345;28;20054;-69
2022/01/28 08:48:20;;;;;;;22.17;12.23;;;;;;;4.40;82.51;101422.16;4967698;28;20074;-70
2022/01/28 08:50:45;;;;;;;20.98;12.80;;;;;;;4.44;81.78;101426.53;4970354;28;20144;-70
2022/01/28 08:53:11;;;;;;;23.63;12.90;;;;;;;4.46;82.30;101427.41;4952737;28;20038;-70
2022/01/28 08:55:38;;;;;;;30.35;13.75;;;;;;;4.52;81.85;101424.81;4969851;28;20579;-71
2022/01/28 08:58:04;;;;;;;18.60;11.70;;;;;;;4.58;81.83;101420.47;4970794;28;20158;-71
2022/01/28 09:00:30;;;;;;;21.88;13.40;;;;;;;4.62;81.28;101417.00;4969807;28;20050;-70
2022/01/28 09:02:55;;;;;;;27.38;11.93;;;;;;;4.74;81.13;101430.06;4969667;28;20035;-69
2022/01/28 09:05:20;;;;;;;20.80;11.60;;;;;;;4.86;81.13;101427.47;4969275;28;20088;-70
2022/01/28 09:07:48;;;;;;;30.85;11.48;;;;;;;4.97;80.24;101437.06;4960772;28;20042;-70
2022/01/28 09:10:18;;;;;;;28.63;10.63;;;;;;;4.98;80.63;101431.84;4961362;28;20034;-71
2022/01/28 09:13:10;;;;;;;25.73;14.55;;;;;;;5.08;79.79;101437.94;4963284;28;20033;-70
2022/01/28 09:15:35;;;;;;;21.08;10.13;;;;;;;5.21;79.40;101433.56;4964354;28;20408;-70
2022/01/28 09:18:01;;;;;;;19.85;10.75;;;;;;;5.32;78.88;101430.06;4964036;28;20046;-70
2022/01/28 09:20:32;;;;;;;20.23;10.50;;;;;;;6.01;77.49;101423.84;4961364;28;20031;-71
2022/01/28 09:22:58;;;;;;;31.02;9.70;;;;;;;7.07;73.88;101421.41;4965385;28;20065;-70
2022/01/28 09:25:24;;;;;;;16.88;9.45;;;;;;;7.73;70.95;101418.16;4963985;28;20035;-72
2022/01/28 09:27:49;;;;;;;18.48;8.68;;;;;;;8.58;67.79;101423.19;4964313;28;20039;-70
2022/01/28 09:30:15;;;;;;;15.85;9.40;;;;;;;9.28;64.73;101414.19;4965634;28;20039;-72
2022/01/28 09:32:40;;;;;;;18.08;9.20;;;;;;;9.75;63.23;101421.22;4982166;28;20039;-73
2022/01/28 09:35:06;;;;;;;17.08;8.05;;;;;;;10.31;61.53;101418.31;4966364;28;20045;-72
2022/01/28 09:37:33;;;;;;;21.55;9.85;;;;;;;10.83;59.68;101419.78;4974569;28;20071;-73
2022/01/28 09:39:59;;;;;;;28.05;10.90;;;;;;;11.13;58.17;101422.56;4944822;28;20035;-72
2022/01/28 09:42:29;;;;;;;15.98;9.10;;;;;;;11.15;57.85;101421.63;4945569;28;20089;-73
2022/01/28 09:44:54;;;;;;;26.52;9.80;;;;;;;11.47;57.06;101412.00;4944212;28;20039;-72
2022/01/28 09:47:20;;;;;;;17.15;8.82;;;;;;;11.51;55.71;101411.00;4947703;28;20090;-72
2022/01/28 09:49:45;;;;;;;26.80;9.52;;;;;;;11.61;56.12;101417.75;4965546;28;20046;-72
2022/01/28 09:52:12;;;;;;;20.60;8.80;;;;;;;11.31;56.36;101427.38;4964738;28;20034;-72
2022/01/28 09:54:39;;;;;;;21.70;9.65;;;;;;;11.41;56.01;101421.84;4964476;28;20078;-74
2022/01/28 09:57:09;;;;;;;22.50;12.20;;;;;;;11.86;54.87;101435.56;4960897;28;20035;-73
2022/01/28 09:59:35;;;;;;;26.35;11.93;;;;;;;11.76;54.24;101429.69;4947298;28;20062;-72
2022/01/28 10:02:01;;;;;;;26.67;11.65;;;;;;;10.73;57.60;101440.25;4956534;28;20174;-74
2022/01/28 10:04:26;;;;;;;16.10;9.88;;;;;;;10.64;58.00;101440.44;4944988;28;20829;-73
2022/01/28 10:06:54;;;;;;;22.05;10.88;;;;;;;11.16;56.46;101439.19;4959291;28;20043;-73
2022/01/28 10:09:19;;;;;;;21.67;10.57;;;;;;;11.24;56.08;101431.06;4968085;28;20129;-73
2022/01/28 10:11:49;;;;;;;26.02;10.70;;;;;;;10.32;58.71;101439.38;4970523;28;20078;-73
2022/01/28 10:14:18;;;;;;;20.00;10.73;;;;;;;10.10;59.51;101445.97;4948550;28;20042;-73
2022/01/28 10:16:58;;;;;;;26.83;12.32;;;;;;;10.35;58.82;101449.00;4949196;28;20074;-73
2022/01/28 10:19:36;;;;;;;22.77;12.93;;;;;;;9.61;60.41;101454.84;4964414;28;20034;-73
2022/01/28 10:22:03;;;;;;;35.60;17.38;;;;;;;8.93;62.60;101461.22;4966654;28;20133;-71
2022/01/28 10:24:28;;;;;;;24.58;13.32;;;;;;;8.87;63.69;101460.47;4948135;28;20097;-72
2022/01/28 10:27:06;;;;;;;24.27;11.55;;;;;;;8.45;64.58;101473.34;4934165;28;20496;-72
2022/01/28 10:29:37;;;;;;;28.90;14.30;;;;;;;8.38;65.85;101465.50;4967668;28;20046;-73
2022/01/28 10:32:13;;;;;;;25.88;12.70;;;;;;;8.66;64.67;101467.75;4968248;28;20738;-74
2022/01/28 10:34:49;;;;;;;26.42;13.45;;;;;;;8.29;66.04;101462.97;4967833;28;20038;-74
2022/01/28 10:37:56;;;;;;;24.33;13.70;;;;;;;8.16;66.95;101456.16;4960427;28;20043;-74
2022/01/28 10:40:21;;;;;;;30.65;15.82;;;;;;;8.29;65.89;101457.72;4830581;29;20053;-74
2022/01/28 10:42:53;;;;;;;25.17;13.77;;;;;;;8.15;67.11;101452.66;4925911;28;20473;-73
2022/01/28 10:45:21;;;;;;;28.45;16.83;;;;;;;8.02;66.92;101460.69;4947942;28;20834;-73
2022/01/28 10:47:53;;;;;;;27.88;15.50;;;;;;;7.82;67.51;101455.66;4955274;28;20058;-73
2022/01/28 10:50:34;;;;;;;32.83;16.65;;;;;;;7.69;68.22;101454.94;4967636;28;20138;-72
2022/01/28 10:53:11;;;;;;;25.23;14.95;;;;;;;7.44;69.04;101454.31;4946845;28;20058;-72
2022/01/28 10:55:44;;;;;;;26.27;14.02;;;;;;;7.21;69.83;101452.78;4967464;28;20043;-73
2022/01/28 10:58:13;;;;;;;22.90;13.30;;;;;;;7.01;70.81;101450.28;4967764;28;20073;-72
2022/01/28 11:00:43;;;;;;;28.25;16.05;;;;;;;6.90;71.58;101461.75;4967099;28;20117;-73
2022/01/28 11:03:11;;;;;;;31.25;15.07;;;;;;;6.85;72.26;101459.16;4970928;28;20042;-73
2022/01/28 11:05:38;;;;;;;27.13;15.23;;;;;;;6.86;72.11;101458.28;4967678;28;20567;-72
2022/01/28 11:08:07;;;;;;;26.13;16.63;;;;;;;6.81;72.64;101458.31;4967260;28;20042;-71
2022/01/28 11:10:33;;;;;;;23.33;15.02;;;;;;;6.74;73.23;101453.13;4972655;28;20031;-72
2022/01/28 11:13:00;;;;;;;27.35;15.63;;;;;;;6.67;72.77;101444.44;4967848;28;20035;-73
2022/01/28 11:15:27;;;;;;;26.17;15.57;;;;;;;6.66;72.94;101455.78;4967786;28;20038;-72
2022/01/28 11:17:53;;;;;;;26.77;16.58;;;;;;;6.66;73.13;101461.03;4966385;28;20034;-71
2022/01/28 11:20:22;;;;;;;22.00;15.60;;;;;;;6.69;73.64;101457.53;4967074;28;20801;-72
2022/01/28 11:23:21;;;;;;;37.17;17.65;;;;;;;6.73;73.63;101460.13;4967763;28;20508;-71
2022/01/28 11:26:06;;;;;;;30.02;16.27;;;;;;;6.79;73.24;101457.47;4967982;28;20047;-71
2022/01/28 11:28:44;;;;;;;31.60;16.85;;;;;;;6.86;73.06;101460.91;4955392;28;20054;-73
2022/01/28 11:31:11;;;;;;;26.38;16.65;;;;;;;6.87;72.81;101452.16;4950629;28;20046;-71
2022/01/28 11:33:49;;;;;;;29.75;15.70;;;;;;;6.93;72.66;101459.97;4965839;28;20465;-71
2022/01/28 11:36:31;;;;;;;26.88;14.73;;;;;;;6.93;73.08;101456.50;4951814;28;20110;-72
2022/01/28 11:38:56;;;;;;;33.10;16.35;;;;;;;6.89;72.63;101460.88;4950744;28;20050;-73
2022/01/28 11:41:24;;;;;;;34.38;17.30;;;;;;;6.91;73.08;101463.50;4946589;28;20043;-74
2022/01/28 11:43:54;;;;;;;33.47;14.90;;;;;;;6.90;73.58;101461.75;4946984;28;20044;-73
2022/01/28 11:46:36;;;;;;;26.30;18.13;;;;;;;6.88;73.46;101460.00;4952002;28;20218;-71
2022/01/28 11:49:02;;;;;;;29.70;18.15;;;;;;;6.94;73.64;101459.13;4949897;28;20047;-72
2022/01/28 11:51:38;;;;;;;33.65;18.63;;;;;;;6.96;73.73;101452.06;4945516;28;20055;-72
2022/01/28 11:54:08;;;;;;;26.67;14.02;;;;;;;6.92;73.26;101432.03;4961476;28;20046;-72
2022/01/28 11:56:38;;;;;;;28.58;15.43;;;;;;;6.91;74.15;101435.50;4966109;28;20046;-71
2022/01/28 11:59:07;;;;;;;30.85;17.15;;;;;;;6.82;73.31;101433.84;4949416;28;20078;-73
2022/01/28 12:01:35;;;;;;;22.98;16.13;;;;;;;6.73;73.80;101427.81;4945683;28;20089;-72
2022/01/28 12:04:24;;;;;;;31.10;16.98;;;;;;;6.71;74.33;101424.31;4946306;28;20119;-72
2022/01/28 12:06:54;;;;;;;27.67;16.77;;;;;;;6.62;73.86;101420.88;4937326;28;20062;-73
2022/01/28 12:09:19;;;;;;;32.92;15.70;;;;;;;6.58;73.57;101419.16;4966256;28;20094;-73
2022/01/28 12:11:45;;;;;;;32.03;16.17;;;;;;;6.52;74.09;101418.31;4966815;28;20576;-72
2022/01/28 12:14:13;;;;;;;35.97;19.13;;;;;;;6.55;73.88;101421.81;4965367;28;20077;-72
2022/01/28 12:16:46;;;;;;;28.55;16.80;;;;;;;6.59;73.50;101420.88;4966170;28;20704;-73
2022/01/28 12:19:19;;;;;;;27.75;18.92;;;;;;;6.66;73.05;101413.84;4948203;28;20034;-73
2022/01/28 12:22:02;;;;;;;32.95;18.65;;;;;;;6.63;73.21;101406.03;4966004;28;20057;-72
2022/01/28 12:24:33;;;;;;;32.35;18.60;;;;;;;6.56;73.06;101405.19;4964196;28;20042;-72
2022/01/28 12:27:01;;;;;;;32.45;17.98;;;;;;;6.59;73.45;101407.78;4945697;28;20047;-72
2022/01/28 12:29:34;;;;;;;24.17;16.52;;;;;;;6.65;72.86;101410.38;4929080;29;20035;-71
2022/01/28 12:32:01;;;;;;;32.72;16.67;;;;;;;6.69;72.57;101405.97;4946989;28;20039;-72
2022/01/28 12:34:27;;;;;;;34.45;18.50;;;;;;;6.72;72.60;101399.84;4929378;28;20058;-72
2022/01/28 12:36:57;;;;;;;34.58;21.02;;;;;;;6.84;72.38;101407.59;4931521;28;20409;-72
2022/01/28 12:39:35;;;;;;;36.33;19.45;;;;;;;6.99;72.20;101404.88;4947732;28;20031;-71
2022/01/28 12:42:09;;;;;;;28.92;18.75;;;;;;;7.02;71.82;101396.13;4965677;28;20138;-72
2022/01/28 12:44:37;;;;;;;30.98;19.85;;;;;;;6.92;71.67;101400.56;4964902;28;20412;-72
2022/01/28 12:47:09;;;;;;;32.60;16.33;;;;;;;6.83;71.41;101388.38;4948706;28;20038;-73
2022/01/28 12:49:39;;;;;;;30.15;17.23;;;;;;;6.77;72.17;101388.47;4912453;28;20451;-73
2022/01/28 12:52:09;;;;;;;35.58;17.33;;;;;;;6.76;72.14;101391.06;4958976;28;20034;-73